Time;durP1;ratioP1;P1;durP2;ratioP2;P2;SDS_P1;SDS_P2;PMS_P1;PMS_P2;Temp;Humidity;BMP_temperature;BMP_pressure;BME280_temperature;BME280_humidity;BME280_pressure;Samples;Min_cycle;Max_cycle;Signal;HPM_P1;HPM_P2
2021/12/12 00:02:18;;;;;;;;;;;-1.30;99.90;;;;;;6132312;23;20323;-82
2021/12/12 00:04:47;;;;;;;;;;;-1.20;99.90;;;;;;6133617;23;19916;-82
2021/12/12 00:07:23;;;;;;;;;;;-1.20;99.90;;;;;;6127766;23;19921;-82
2021/12/12 00:09:52;;;;;;;;;;;-1.20;99.90;;;;;;6097534;23;20309;-82
2021/12/12 00:12:29;;;;;;;;;;;-1.20;99.90;;;;;;6096135;23;20264;-82
2021/12/12 00:14:56;;;;;;;;;;;-1.10;99.90;;;;;;6072761;23;19920;-83
2021/12/12 00:17:25;;;;;;;;;;;-1.00;99.90;;;;;;6133581;23;19928;-82
2021/12/12 00:19:54;;;;;;;;;;;-1.00;99.90;;;;;;6123065;23;20341;-82
2021/12/12 00:22:23;;;;;;;;;;;-0.90;99.90;;;;;;6105291;23;19927;-82
2021/12/12 00:24:51;;;;;;;;;;;-0.90;99.90;;;;;;6109483;23;19928;-82
2021/12/12 00:27:21;;;;;;;;;;;-0.90;99.90;;;;;;6103301;23;19920;-82
2021/12/12 00:29:49;;;;;;;;;;;-0.90;99.90;;;;;;6075974;23;19928;-82
2021/12/12 00:32:17;;;;;;;;;;;-0.90;99.90;;;;;;6099375;23;20404;-82
2021/12/12 00:34:58;;;;;;;;;;;-0.80;99.90;;;;;;6098699;23;20258;-82
2021/12/12 00:37:27;;;;;;;;;;;-0.80;99.90;;;;;;6135483;23;19921;-83
2021/12/12 00:39:56;;;;;;;;;;;-0.70;99.90;;;;;;6125113;23;19917;-82
2021/12/12 00:42:26;;;;;;;;;;;-0.70;99.90;;;;;;6106413;23;19921;-83
2021/12/12 00:44:58;;;;;;;;;;;-0.60;99.90;;;;;;6135441;23;20385;-82
2021/12/12 00:47:27;;;;;;;;;;;-0.60;99.90;;;;;;6127948;23;19923;-80
2021/12/12 00:50:20;;;;;;;;;;;-0.60;99.90;;;;;;6124352;23;20103;-79
2021/12/12 00:52:51;;;;;;;;;;;-0.60;99.90;;;;;;6124941;23;19921;-79
2021/12/12 00:55:19;;;;;;;;;;;-0.60;99.90;;;;;;6102572;23;19920;-80
2021/12/12 00:57:53;;;;;;;;;;;-0.50;99.90;;;;;;6134484;23;19921;-80
2021/12/12 01:00:22;;;;;;;;;;;-0.50;99.90;;;;;;6125364;23;20332;-80
2021/12/12 01:02:50;;;;;;;;;;;-0.40;99.90;;;;;;6130870;23;19924;-80
2021/12/12 01:05:19;;;;;;;;;;;-0.60;99.90;;;;;;6133675;23;19921;-80
2021/12/12 01:07:47;;;;;;;;;;;-0.60;99.90;;;;;;6127066;23;19924;-80
2021/12/12 01:10:19;;;;;;;;;;;-0.50;99.90;;;;;;6132370;23;19920;-80
2021/12/12 01:12:47;;;;;;;;;;;-0.40;99.90;;;;;;6133826;23;19920;-80
2021/12/12 01:15:21;;;;;;;;;;;-0.30;99.90;;;;;;6124432;23;19921;-80
2021/12/12 01:17:52;;;;;;;;;;;-0.20;99.90;;;;;;6135330;23;19917;-80
2021/12/12 01:20:32;;;;;;;;;;;-0.10;99.90;;;;;;6124884;23;19917;-80
2021/12/12 01:23:03;;;;;;;;;;;-0.10;99.90;;;;;;6129822;23;19921;-80
2021/12/12 01:25:50;;;;;;;;;;;0.00;99.90;;;;;;6134971;23;19921;-80
2021/12/12 01:28:31;;;;;;;;;;;0.00;99.90;;;;;;6123350;23;19932;-80
2021/12/12 01:31:08;;;;;;;;;;;0.00;99.90;;;;;;6103379;23;19928;-80
2021/12/12 01:33:39;;;;;;;;;;;0.00;99.90;;;;;;6074512;23;19921;-80
2021/12/12 01:36:27;;;;;;;;;;;0.10;99.90;;;;;;6124008;23;19921;-80
2021/12/12 01:38:56;;;;;;;;;;;0.10;99.90;;;;;;6074697;23;20329;-80
2021/12/12 01:41:30;;;;;;;;;;;0.20;99.90;;;;;;6134304;23;19920;-80
2021/12/12 01:43:59;;;;;;;;;;;0.20;99.90;;;;;;6099495;23;19928;-80
2021/12/12 01:46:32;;;;;;;;;;;0.20;99.90;;;;;;6132092;23;19916;-80
2021/12/12 01:49:14;;;;;;;;;;;0.20;99.90;;;;;;6134965;23;19920;-80
2021/12/12 01:51:43;;;;;;;;;;;0.30;99.90;;;;;;6101519;23;19917;-80
2021/12/12 01:54:12;;;;;;;;;;;0.30;99.90;;;;;;6097384;23;19920;-80
2021/12/12 01:56:43;;;;;;;;;;;0.30;99.90;;;;;;6134643;23;19917;-80
2021/12/12 01:59:11;;;;;;;;;;;0.30;99.90;;;;;;6128790;23;19917;-80
2021/12/12 02:01:49;;;;;;;;;;;0.30;99.90;;;;;;6098647;23;19917;-80
2021/12/12 02:04:20;;;;;;;;;;;0.30;99.90;;;;;;6074554;23;19921;-80
2021/12/12 02:06:48;;;;;;;;;;;0.30;99.90;;;;;;6097960;23;19917;-81
2021/12/12 02:09:17;;;;;;;;;;;0.30;99.90;;;;;;6108871;23;19920;-81
2021/12/12 02:11:47;;;;;;;;;;;0.30;99.90;;;;;;6126435;23;19924;-80
2021/12/12 02:14:16;;;;;;;;;;;0.40;99.90;;;;;;6127972;23;20322;-81
2021/12/12 02:16:46;;;;;;;;;;;0.40;99.90;;;;;;6108726;23;20233;-80
2021/12/12 02:19:16;;;;;;;;;;;0.40;99.90;;;;;;6128287;23;19924;-81
2021/12/12 02:22:00;;;;;;;;;;;0.40;99.90;;;;;;6124323;23;20439;-80
2021/12/12 02:35:42;;;;;;;;;;;0.50;99.90;;;;;;6127696;23;19966;-81
2021/12/12 02:38:11;;;;;;;;;;;0.40;99.90;;;;;;6132604;23;19917;-80
2021/12/12 02:40:43;;;;;;;;;;;0.50;99.90;;;;;;6133934;23;19920;-80
2021/12/12 02:43:14;;;;;;;;;;;0.50;99.90;;;;;;6072432;23;20399;-81
2021/12/12 02:45:42;;;;;;;;;;;0.50;99.90;;;;;;6134159;23;20316;-80
2021/12/12 02:48:16;;;;;;;;;;;0.50;99.90;;;;;;6123278;23;20238;-81
2021/12/12 02:50:46;;;;;;;;;;;0.40;99.90;;;;;;6104602;23;19944;-80
2021/12/12 02:53:20;;;;;;;;;;;0.40;99.90;;;;;;6134118;23;19943;-80
2021/12/12 02:55:54;;;;;;;;;;;0.40;99.90;;;;;;6073033;23;20348;-81
2021/12/12 02:58:22;;;;;;;;;;;0.40;99.90;;;;;;6130250;23;19921;-80
2021/12/12 03:00:56;;;;;;;;;;;0.40;99.90;;;;;;6133740;23;19952;-80
2021/12/12 03:03:29;;;;;;;;;;;0.40;99.90;;;;;;6126338;23;19917;-80
2021/12/12 03:05:56;;;;;;;;;;;0.50;99.90;;;;;;6074601;23;19917;-81
2021/12/12 03:08:24;;;;;;;;;;;0.50;99.90;;;;;;6097583;23;19921;-80
2021/12/12 03:10:52;;;;;;;;;;;0.50;99.90;;;;;;6129974;23;20257;-81
2021/12/12 03:13:20;;;;;;;;;;;0.50;99.90;;;;;;6130998;23;19917;-80
2021/12/12 03:15:48;;;;;;;;;;;0.50;99.90;;;;;;6100027;23;19921;-81
2021/12/12 03:18:18;;;;;;;;;;;0.50;99.90;;;;;;6131890;23;20321;-81
2021/12/12 03:20:50;;;;;;;;;;;0.50;99.90;;;;;;6133486;23;19917;-81
2021/12/12 03:23:27;;;;;;;;;;;0.50;99.90;;;;;;6123221;23;19952;-81
2021/12/12 03:25:59;;;;;;;;;;;0.50;99.90;;;;;;6133418;23;19917;-81
2021/12/12 03:28:27;;;;;;;;;;;0.50;99.90;;;;;;6122117;23;19924;-80
2021/12/12 03:30:56;;;;;;;;;;;0.50;99.90;;;;;;6129430;23;20313;-81
2021/12/12 03:33:24;;;;;;;;;;;0.50;99.90;;;;;;6133864;23;19921;-80
2021/12/12 03:35:53;;;;;;;;;;;0.50;99.90;;;;;;6125635;23;19924;-80
2021/12/12 03:38:23;;;;;;;;;;;0.50;99.90;;;;;;6130925;23;20321;-80
2021/12/12 03:40:51;;;;;;;;;;;0.50;99.90;;;;;;6133745;23;19921;-80
2021/12/12 03:43:18;;;;;;;;;;;0.60;99.90;;;;;;6096500;23;19921;-81
2021/12/12 03:45:46;;;;;;;;;;;0.50;99.90;;;;;;6134077;23;19920;-80
2021/12/12 03:48:22;;;;;;;;;;;0.60;99.90;;;;;;6098601;23;19920;-80
2021/12/12 03:50:51;;;;;;;;;;;0.60;99.90;;;;;;6128829;23;19935;-81
2021/12/12 03:53:20;;;;;;;;;;;0.60;99.90;;;;;;6123733;23;19924;-80
2021/12/12 03:55:48;;;;;;;;;;;0.60;99.90;;;;;;6097270;23;19917;-80
2021/12/12 03:58:16;;;;;;;;;;;0.60;99.90;;;;;;6072531;23;19924;-81
2021/12/12 04:00:50;;;;;;;;;;;0.60;99.90;;;;;;6097596;23;19920;-81
2021/12/12 04:03:18;;;;;;;;;;;0.60;99.90;;;;;;6127499;23;19917;-81
2021/12/12 04:05:46;;;;;;;;;;;0.60;99.90;;;;;;6133688;23;19917;-81
2021/12/12 04:08:14;;;;;;;;;;;0.60;99.90;;;;;;6123554;23;19927;-81
2021/12/12 04:10:42;;;;;;;;;;;0.60;99.90;;;;;;6104191;23;19921;-81
2021/12/12 04:13:09;;;;;;;;;;;0.60;99.90;;;;;;6119947;23;19925;-81
2021/12/12 04:15:38;;;;;;;;;;;0.70;99.90;;;;;;6124886;23;20249;-81
2021/12/12 04:18:07;;;;;;;;;;;0.60;99.90;;;;;;6131930;23;20320;-80
2021/12/12 04:20:36;;;;;;;;;;;0.60;99.90;;;;;;6097285;23;20240;-80
2021/12/12 04:23:13;;;;;;;;;;;0.60;99.90;;;;;;6122489;23;19923;-80
2021/12/12 04:25:40;;;;;;;;;;;0.70;99.90;;;;;;6073397;23;19943;-81
2021/12/12 04:28:08;;;;;;;;;;;0.60;99.90;;;;;;6096567;23;19923;-81
2021/12/12 04:30:36;;;;;;;;;;;0.60;99.90;;;;;;6049200;23;20502;-80
2021/12/12 04:33:03;;;;;;;;;;;0.70;99.90;;;;;;6132101;23;19925;-81
2021/12/12 04:35:31;;;;;;;;;;;0.60;99.90;;;;;;6073043;23;20324;-81
2021/12/12 04:37:59;;;;;;;;;;;0.70;99.90;;;;;;6132726;23;19917;-81
2021/12/12 04:40:28;;;;;;;;;;;0.60;99.90;;;;;;6133503;23;20435;-81
2021/12/12 04:42:56;;;;;;;;;;;0.60;99.90;;;;;;6102556;23;19924;-80
2021/12/12 04:45:42;;;;;;;;;;;0.70;99.90;;;;;;6133828;23;19920;-81
2021/12/12 04:51:05;;;;;;;;;;;0.70;99.90;;;;;;6096557;23;19917;-80
2021/12/12 04:53:36;;;;;;;;;;;0.70;99.90;;;;;;6097158;23;19944;-81
2021/12/12 04:56:04;;;;;;;;;;;0.70;99.90;;;;;;6098779;23;20329;-81
2021/12/12 04:58:31;;;;;;;;;;;0.70;99.90;;;;;;6129974;23;19917;-81
2021/12/12 05:01:04;;;;;;;;;;;0.70;99.90;;;;;;6133416;23;19917;-81
2021/12/12 05:03:32;;;;;;;;;;;0.70;99.90;;;;;;6127130;23;19921;-80
2021/12/12 05:06:01;;;;;;;;;;;0.70;99.90;;;;;;6133142;23;19928;-81
2021/12/12 05:08:39;;;;;;;;;;;0.70;99.90;;;;;;6122454;23;19921;-80
2021/12/12 05:11:10;;;;;;;;;;;0.70;99.90;;;;;;6129933;23;19917;-81
2021/12/12 05:13:41;;;;;;;;;;;0.70;99.90;;;;;;6131581;23;19928;-80
2021/12/12 05:16:13;;;;;;;;;;;0.70;99.90;;;;;;6125487;23;19921;-79
2021/12/12 05:18:48;;;;;;;;;;;0.70;99.90;;;;;;6131344;23;19921;-79
2021/12/12 05:21:23;;;;;;;;;;;0.70;99.90;;;;;;6134534;23;19921;-80
2021/12/12 05:23:52;;;;;;;;;;;0.70;99.90;;;;;;6126499;23;19917;-80
2021/12/12 05:26:22;;;;;;;;;;;0.70;99.90;;;;;;6132773;23;19936;-80
2021/12/12 05:28:57;;;;;;;;;;;0.70;99.90;;;;;;6133967;23;19931;-80
2021/12/12 05:31:25;;;;;;;;;;;0.70;99.90;;;;;;6128191;23;20502;-80
2021/12/12 05:33:54;;;;;;;;;;;0.70;99.90;;;;;;6134421;23;19923;-80
2021/12/12 05:36:22;;;;;;;;;;;0.70;99.90;;;;;;6123932;23;19921;-80
2021/12/12 05:38:49;;;;;;;;;;;0.70;99.90;;;;;;6130119;23;19928;-79
2021/12/12 05:41:19;;;;;;;;;;;0.60;99.90;;;;;;6134023;23;20325;-80
2021/12/12 05:43:47;;;;;;;;;;;0.60;99.90;;;;;;6126094;23;19924;-80
2021/12/12 05:46:18;;;;;;;;;;;0.60;99.90;;;;;;6132907;23;19921;-80
2021/12/12 05:48:46;;;;;;;;;;;0.70;99.90;;;;;;6134841;23;19917;-80
2021/12/12 05:51:15;;;;;;;;;;;0.70;99.90;;;;;;6128547;23;19920;-80
2021/12/12 05:53:42;;;;;;;;;;;0.80;99.90;;;;;;6134295;23;20325;-80
2021/12/12 05:56:10;;;;;;;;;;;0.80;99.90;;;;;;6099545;23;20256;-80
2021/12/12 05:58:38;;;;;;;;;;;0.90;99.90;;;;;;6130721;23;20329;-80
2021/12/12 06:01:08;;;;;;;;;;;0.80;99.90;;;;;;6134765;23;19916;-80
2021/12/12 06:03:37;;;;;;;;;;;0.80;99.90;;;;;;6127751;23;19921;-80
2021/12/12 06:06:06;;;;;;;;;;;0.80;99.90;;;;;;6133459;23;19920;-80
2021/12/12 06:08:34;;;;;;;;;;;0.80;99.90;;;;;;6134160;23;19917;-80
2021/12/12 06:11:03;;;;;;;;;;;0.80;99.90;;;;;;6129313;23;19920;-80
2021/12/12 06:13:31;;;;;;;;;;;0.80;99.90;;;;;;6131436;23;19921;-80
2021/12/12 06:16:00;;;;;;;;;;;0.90;99.90;;;;;;6100075;23;19921;-80
2021/12/12 06:18:33;;;;;;;;;;;0.90;99.90;;;;;;6106017;23;19928;-80
2021/12/12 06:21:00;;;;;;;;;;;0.90;99.90;;;;;;6133186;23;19920;-80
2021/12/12 06:23:29;;;;;;;;;;;0.80;99.90;;;;;;6127724;23;19936;-80
2021/12/12 06:25:58;;;;;;;;;;;0.80;99.90;;;;;;6123960;23;19917;-80
2021/12/12 06:28:27;;;;;;;;;;;0.80;99.90;;;;;;6073641;23;19927;-80
2021/12/12 06:30:56;;;;;;;;;;;0.80;99.90;;;;;;6129950;23;20375;-80
2021/12/12 06:33:24;;;;;;;;;;;0.80;99.90;;;;;;6134178;23;20348;-80
2021/12/12 06:35:52;;;;;;;;;;;0.80;99.90;;;;;;6126226;23;19921;-80
2021/12/12 06:38:20;;;;;;;;;;;0.80;99.90;;;;;;6131923;23;19928;-80
2021/12/12 06:40:48;;;;;;;;;;;0.80;99.90;;;;;;6134090;23;20468;-80
2021/12/12 06:43:17;;;;;;;;;;;0.80;99.90;;;;;;6100599;23;19916;-80
2021/12/12 06:45:46;;;;;;;;;;;0.80;99.90;;;;;;6134246;23;19917;-79
2021/12/12 06:48:14;;;;;;;;;;;0.80;99.90;;;;;;6124461;23;20236;-80
2021/12/12 06:50:43;;;;;;;;;;;0.80;99.90;;;;;;6130487;23;19924;-80
2021/12/12 06:53:11;;;;;;;;;;;0.70;99.90;;;;;;6098158;23;19944;-81
2021/12/12 06:55:44;;;;;;;;;;;0.70;99.90;;;;;;6097863;23;20381;-79
2021/12/12 06:58:15;;;;;;;;;;;0.70;99.90;;;;;;6131817;23;19921;-79
2021/12/12 07:00:44;;;;;;;;;;;0.70;99.90;;;;;;6097897;23;19920;-79
2021/12/12 07:03:16;;;;;;;;;;;0.70;99.90;;;;;;6073925;23;19925;-79
2021/12/12 07:05:43;;;;;;;;;;;0.80;99.90;;;;;;6108603;23;19927;-79
2021/12/12 07:08:12;;;;;;;;;;;0.70;99.90;;;;;;6122890;23;19921;-79
2021/12/12 07:10:44;;;;;;;;;;;0.70;99.90;;;;;;6121765;23;20326;-80
2021/12/12 07:13:12;;;;;;;;;;;0.70;99.90;;;;;;6132303;23;19925;-80
2021/12/12 07:15:45;;;;;;;;;;;0.70;99.90;;;;;;6074091;23;20329;-79
2021/12/12 07:18:14;;;;;;;;;;;0.70;99.90;;;;;;6132695;23;19923;-79
2021/12/12 07:20:42;;;;;;;;;;;0.70;99.90;;;;;;6098342;23;19927;-79
2021/12/12 07:23:11;;;;;;;;;;;0.70;99.90;;;;;;6102821;23;19923;-79
2021/12/12 07:25:39;;;;;;;;;;;0.70;99.90;;;;;;6108257;23;19928;-79
2021/12/12 07:28:07;;;;;;;;;;;0.70;99.90;;;;;;6124200;23;19923;-79
2021/12/12 07:30:35;;;;;;;;;;;0.80;99.90;;;;;;6129654;23;19920;-80
2021/12/12 07:33:04;;;;;;;;;;;0.80;99.90;;;;;;6133974;23;19917;-79
2021/12/12 07:35:33;;;;;;;;;;;0.80;99.90;;;;;;6101019;23;20352;-79
2021/12/12 07:38:02;;;;;;;;;;;0.80;99.90;;;;;;6132343;23;19917;-80
2021/12/12 07:40:30;;;;;;;;;;;0.80;99.90;;;;;;6133632;23;19924;-79
2021/12/12 07:42:57;;;;;;;;;;;0.80;99.90;;;;;;6128429;23;19921;-79
2021/12/12 07:45:25;;;;;;;;;;;0.80;99.90;;;;;;6107924;23;19940;-79
2021/12/12 07:47:53;;;;;;;;;;;0.80;99.90;;;;;;6125491;23;19925;-79
2021/12/12 07:50:22;;;;;;;;;;;0.80;99.90;;;;;;6130927;23;19918;-79
2021/12/12 07:52:50;;;;;;;;;;;0.80;99.90;;;;;;6107653;23;19979;-79
2021/12/12 07:55:18;;;;;;;;;;;0.80;99.90;;;;;;6127491;23;19924;-80
2021/12/12 07:57:47;;;;;;;;;;;0.80;99.90;;;;;;6096900;23;19928;-80
2021/12/12 08:00:16;;;;;;;;;;;0.80;99.90;;;;;;6123815;23;19917;-80
2021/12/12 08:02:45;;;;;;;;;;;0.80;99.90;;;;;;6130156;23;19920;-80
2021/12/12 08:05:15;;;;;;;;;;;0.80;99.90;;;;;;6133592;23;19921;-80
2021/12/12 08:07:43;;;;;;;;;;;0.90;99.90;;;;;;6125726;23;19920;-81
2021/12/12 08:10:11;;;;;;;;;;;0.90;99.90;;;;;;6132547;23;20252;-81
2021/12/12 08:12:40;;;;;;;;;;;0.90;99.90;;;;;;6132954;23;19917;-82
2021/12/12 08:15:14;;;;;;;;;;;1.00;99.90;;;;;;6124023;23;19921;-81
2021/12/12 08:17:42;;;;;;;;;;;0.90;99.90;;;;;;6131879;23;19924;-82
2021/12/12 08:20:11;;;;;;;;;;;1.00;99.90;;;;;;6123795;23;19916;-81
2021/12/12 08:22:39;;;;;;;;;;;1.00;99.90;;;;;;6130179;23;19920;-81
2021/12/12 08:25:08;;;;;;;;;;;1.00;99.90;;;;;;6133698;23;20260;-81
2021/12/12 08:27:35;;;;;;;;;;;1.00;99.90;;;;;;6125819;23;19921;-81
2021/12/12 08:30:04;;;;;;;;;;;1.00;99.90;;;;;;6105964;23;19998;-81
2021/12/12 08:32:31;;;;;;;;;;;1.10;99.90;;;;;;6108348;23;19921;-81
2021/12/12 08:35:10;;;;;;;;;;;1.30;99.90;;;;;;6097452;23;19924;-81
2021/12/12 08:37:38;;;;;;;;;;;1.30;99.90;;;;;;6107770;23;19923;-81
2021/12/12 08:40:06;;;;;;;;;;;1.20;99.90;;;;;;6098610;23;20336;-81
2021/12/12 08:42:34;;;;;;;;;;;1.20;99.90;;;;;;6128228;23;19917;-81
2021/12/12 08:45:04;;;;;;;;;;;1.30;99.90;;;;;;6134864;23;19924;-81
2021/12/12 08:47:33;;;;;;;;;;;1.30;99.90;;;;;;6075400;23;20520;-82
2021/12/12 08:50:01;;;;;;;;;;;1.30;99.90;;;;;;6099063;23;20329;-81
2021/12/12 08:52:34;;;;;;;;;;;1.40;99.90;;;;;;6109111;23;19971;-81
2021/12/12 08:55:07;;;;;;;;;;;1.40;99.90;;;;;;6129983;23;20418;-82
2021/12/12 08:57:45;;;;;;;;;;;1.50;99.90;;;;;;6135049;23;20236;-82
2021/12/12 09:00:31;;;;;;;;;;;1.50;99.90;;;;;;6123925;23;19924;-81
2021/12/12 09:02:59;;;;;;;;;;;1.50;99.90;;;;;;6130666;23;19917;-81
2021/12/12 09:05:29;;;;;;;;;;;1.60;99.90;;;;;;6134497;23;19921;-82
2021/12/12 09:08:21;;;;;;;;;;;1.60;99.90;;;;;;6124925;23;19932;-82
2021/12/12 09:10:58;;;;;;;;;;;1.70;99.90;;;;;;6131759;23;19923;-81
2021/12/12 09:13:28;;;;;;;;;;;1.80;99.90;;;;;;6133097;23;20646;-80
2021/12/12 09:16:01;;;;;;;;;;;1.90;99.90;;;;;;6126516;23;19917;-80
2021/12/12 09:18:33;;;;;;;;;;;1.90;99.90;;;;;;6132487;23;20578;-80
2021/12/12 09:21:10;;;;;;;;;;;2.00;99.90;;;;;;6134919;23;19924;-80
2021/12/12 09:23:42;;;;;;;;;;;2.10;99.90;;;;;;6127895;23;20244;-80
2021/12/12 09:26:16;;;;;;;;;;;2.00;99.90;;;;;;6133195;23;19917;-81
2021/12/12 09:28:55;;;;;;;;;;;2.10;99.90;;;;;;6135008;23;20371;-84
2021/12/12 09:31:23;;;;;;;;;;;2.00;99.90;;;;;;6129115;23;19921;-84
2021/12/12 09:33:53;;;;;;;;;;;1.90;99.90;;;;;;6136066;23;19928;-85
2021/12/12 09:36:38;;;;;;;;;;;1.80;99.90;;;;;;6099132;23;20393;-84
2021/12/12 09:39:50;;;;;;;;;;;1.90;99.90;;;;;;6103979;23;19916;-86
2021/12/12 09:43:03;;;;;;;;;;;1.90;99.90;;;;;;6094099;23;19916;-85
2021/12/12 09:45:37;;;;;;;;;;;2.60;99.90;;;;;;6108827;23;20273;-83
2021/12/12 09:51:15;;;;;;;;;;;3.40;99.90;;;;;;6098639;23;20320;-83
2021/12/12 09:54:01;;;;;;;;;;;3.00;99.90;;;;;;6134858;23;19924;-84
2021/12/12 09:56:29;;;;;;;;;;;2.80;99.90;;;;;;6098464;23;19917;-85
2021/12/12 09:58:59;;;;;;;;;;;2.70;99.90;;;;;;6129766;23;20221;-82
2021/12/12 10:01:30;;;;;;;;;;;2.50;99.90;;;;;;6134791;23;20344;-84
2021/12/12 10:04:17;;;;;;;;;;;2.30;99.90;;;;;;6125641;23;19920;-82
2021/12/12 10:06:45;;;;;;;;;;;2.50;99.90;;;;;;6098288;23;19920;-83
2021/12/12 10:09:14;;;;;;;;;;;2.60;99.90;;;;;;6109010;23;19916;-82
2021/12/12 10:12:03;;;;;;;;;;;2.50;99.90;;;;;;6127303;23;19944;-83
2021/12/12 10:14:38;;;;;;;;;;;2.50;99.90;;;;;;6127892;23;19942;-81
2021/12/12 10:17:13;;;;;;;;;;;2.30;99.90;;;;;;6133348;23;19924;-82
2021/12/12 10:19:41;;;;;;;;;;;2.30;99.90;;;;;;6127228;23;19920;-84
2021/12/12 10:22:28;;;;;;;;;;;2.20;99.90;;;;;;6132988;23;19917;-85
2021/12/12 10:25:00;;;;;;;;;;;2.30;99.90;;;;;;6134493;23;19916;-82
2021/12/12 10:27:34;;;;;;;;;;;2.50;99.90;;;;;;6073536;23;19916;-83
2021/12/12 10:30:04;;;;;;;;;;;2.60;99.90;;;;;;6106657;23;19972;-82
2021/12/12 10:32:39;;;;;;;;;;;2.50;99.90;;;;;;6098733;23;19920;-82
2021/12/12 10:35:10;;;;;;;;;;;2.40;99.90;;;;;;6127382;23;19917;-81
2021/12/12 10:37:46;;;;;;;;;;;2.30;99.90;;;;;;6108455;23;20265;-81
2021/12/12 10:40:18;;;;;;;;;;;2.30;99.90;;;;;;6098606;23;19924;-81
2021/12/12 10:42:48;;;;;;;;;;;2.40;99.90;;;;;;6129001;23;19916;-81
2021/12/12 10:45:21;;;;;;;;;;;2.50;99.90;;;;;;6133172;23;19927;-83
2021/12/12 10:47:54;;;;;;;;;;;2.40;99.90;;;;;;6125999;23;19921;-82
2021/12/12 10:50:31;;;;;;;;;;;2.50;99.90;;;;;;6106878;23;19928;-81
2021/12/12 10:53:17;;;;;;;;;;;2.50;99.90;;;;;;6128630;23;19917;-82
2021/12/12 10:55:48;;;;;;;;;;;2.50;99.90;;;;;;6125862;23;19924;-81
2021/12/12 10:58:20;;;;;;;;;;;2.60;99.90;;;;;;6096798;23;19917;-81
2021/12/12 11:00:49;;;;;;;;;;;2.70;99.90;;;;;;6133594;23;19917;-82
2021/12/12 11:03:23;;;;;;;;;;;2.70;99.90;;;;;;6128272;23;19928;-82
2021/12/12 11:06:15;;;;;;;;;;;2.60;99.90;;;;;;6134028;23;19917;-82
2021/12/12 11:08:47;;;;;;;;;;;2.60;99.90;;;;;;6043297;23;19924;-82
2021/12/12 11:11:17;;;;;;;;;;;2.70;99.90;;;;;;6102842;23;19928;-82
2021/12/12 11:13:50;;;;;;;;;;;2.80;99.90;;;;;;6130221;23;19921;-83
2021/12/12 11:16:17;;;;;;;;;;;2.90;99.90;;;;;;6124234;23;19928;-82
2021/12/12 11:18:45;;;;;;;;;;;2.90;99.90;;;;;;6096593;23;20371;-83
2021/12/12 11:21:20;;;;;;;;;;;3.00;99.90;;;;;;6098166;23;19928;-83
2021/12/12 11:23:50;;;;;;;;;;;3.10;99.90;;;;;;6099935;23;19924;-82
2021/12/12 11:26:22;;;;;;;;;;;3.10;99.90;;;;;;6106583;23;19920;-82
2021/12/12 11:28:58;;;;;;;;;;;3.10;99.90;;;;;;6133559;23;19921;-82
2021/12/12 11:31:44;;;;;;;;;;;3.10;99.90;;;;;;6096820;23;19921;-82
2021/12/12 11:34:32;;;;;;;;;;;3.20;99.90;;;;;;6109763;23;19917;-82
2021/12/12 11:37:18;;;;;;;;;;;3.10;99.90;;;;;;6133397;23;19916;-83
2021/12/12 11:39:51;;;;;;;;;;;3.10;99.90;;;;;;6099532;23;19920;-82
2021/12/12 11:42:22;;;;;;;;;;;3.20;99.90;;;;;;6105526;23;19921;-82
2021/12/12 11:44:49;;;;;;;;;;;3.20;99.90;;;;;;6134109;23;20332;-82
2021/12/12 11:47:35;;;;;;;;;;;3.20;99.90;;;;;;6102305;23;19927;-82
2021/12/12 11:50:12;;;;;;;;;;;3.20;99.90;;;;;;6132365;23;19928;-82
2021/12/12 11:52:42;;;;;;;;;;;3.30;99.90;;;;;;6133387;23;20352;-82
2021/12/12 11:55:18;;;;;;;;;;;3.40;99.90;;;;;;6097210;23;20658;-83
2021/12/12 11:57:53;;;;;;;;;;;3.50;99.90;;;;;;6131469;23;19937;-83
2021/12/12 12:00:30;;;;;;;;;;;3.50;99.90;;;;;;6096978;23;20313;-82
2021/12/12 12:03:10;;;;;;;;;;;3.60;99.90;;;;;;6129264;23;19927;-82
2021/12/12 12:05:43;;;;;;;;;;;3.60;99.90;;;;;;6133898;23;19924;-83
2021/12/12 12:08:29;;;;;;;;;;;3.80;99.90;;;;;;6124480;23;19927;-83
2021/12/12 12:11:31;;;;;;;;;;;3.80;99.90;;;;;;6128526;23;19917;-83
2021/12/12 12:14:07;;;;;;;;;;;3.60;99.90;;;;;;5953828;24;20015;-83
2021/12/12 12:16:58;;;;;;;;;;;3.40;99.90;;;;;;6079807;23;20002;-83
2021/12/12 12:19:25;;;;;;;;;;;3.30;99.90;;;;;;6097585;23;19928;-83
2021/12/12 12:21:53;;;;;;;;;;;3.30;99.90;;;;;;6099536;23;19917;-83
2021/12/12 12:24:36;;;;;;;;;;;3.40;99.90;;;;;;6124972;23;19924;-83
2021/12/12 12:27:15;;;;;;;;;;;3.40;99.90;;;;;;6129897;23;19920;-83
2021/12/12 12:29:51;;;;;;;;;;;3.30;99.90;;;;;;6109265;23;19921;-83
2021/12/12 12:32:45;;;;;;;;;;;3.30;99.90;;;;;;6125243;23;19920;-83
2021/12/12 12:35:33;;;;;;;;;;;3.30;99.90;;;;;;6075157;23;19920;-83
2021/12/12 12:38:19;;;;;;;;;;;3.30;99.90;;;;;;6098415;23;19917;-84
2021/12/12 12:41:05;;;;;;;;;;;3.40;99.90;;;;;;6075067;23;19917;-84
2021/12/12 12:43:52;;;;;;;;;;;3.40;99.90;;;;;;6098643;23;19944;-83
2021/12/12 12:46:22;;;;;;;;;;;3.40;99.90;;;;;;6133118;23;19932;-80
2021/12/12 12:48:57;;;;;;;;;;;3.40;99.90;;;;;;6075579;23;19917;-84
2021/12/12 12:51:28;;;;;;;;;;;3.40;99.90;;;;;;6103197;23;19932;-84
2021/12/12 12:53:58;;;;;;;;;;;3.40;99.90;;;;;;6135103;23;19924;-84
2021/12/12 12:56:44;;;;;;;;;;;3.30;99.90;;;;;;6097143;23;20313;-84
2021/12/12 12:59:27;;;;;;;;;;;3.40;99.90;;;;;;6095499;23;20248;-84
2021/12/12 13:02:25;;;;;;;;;;;3.40;99.90;;;;;;6134299;23;19924;-83
2021/12/12 13:04:57;;;;;;;;;;;3.40;99.90;;;;;;6088809;23;19917;-83
2021/12/12 13:07:40;;;;;;;;;;;3.40;99.90;;;;;;6128132;23;19921;-85
2021/12/12 13:10:15;;;;;;;;;;;3.40;99.90;;;;;;6133062;23;20502;-84
2021/12/12 13:13:01;;;;;;;;;;;3.40;99.90;;;;;;6134365;23;19921;-85
2021/12/12 13:15:50;;;;;;;;;;;3.30;99.90;;;;;;6127709;23;19917;-84
2021/12/12 13:18:52;;;;;;;;;;;3.40;99.90;;;;;;6096195;23;19970;-84
2021/12/12 13:21:41;;;;;;;;;;;3.40;99.90;;;;;;6075191;23;19920;-85
2021/12/12 13:24:21;;;;;;;;;;;3.40;99.90;;;;;;6075278;23;19917;-85
2021/12/12 13:27:17;;;;;;;;;;;3.40;99.90;;;;;;6105238;23;19920;-85
2021/12/12 13:30:03;;;;;;;;;;;3.40;99.90;;;;;;6122990;23;19923;-86
2021/12/12 13:32:51;;;;;;;;;;;3.40;99.90;;;;;;6097657;23;19928;-85
2021/12/12 13:35:28;;;;;;;;;;;3.30;99.90;;;;;;6122867;23;20321;-86
2021/12/12 13:38:07;;;;;;;;;;;3.30;99.90;;;;;;6074645;23;19920;-87
2021/12/12 13:40:50;;;;;;;;;;;3.20;99.90;;;;;;6078989;23;19947;-86
2021/12/12 13:43:38;;;;;;;;;;;3.30;99.90;;;;;;6070366;23;19917;-87
2021/12/12 13:46:26;;;;;;;;;;;3.30;99.90;;;;;;6132168;23;19921;-87
2021/12/12 13:49:13;;;;;;;;;;;3.30;99.90;;;;;;6074800;23;19928;-88
2021/12/12 13:52:05;;;;;;;;;;;3.20;99.90;;;;;;6101160;23;19921;-87
2021/12/12 13:54:38;;;;;;;;;;;3.30;99.90;;;;;;6061615;23;19924;-87
2021/12/12 13:57:18;;;;;;;;;;;3.30;99.90;;;;;;6073874;23;19928;-87
2021/12/12 13:59:55;;;;;;;;;;;3.30;99.90;;;;;;6124874;23;19921;-86
2021/12/12 14:02:23;;;;;;;;;;;3.30;99.90;;;;;;6098176;23;20534;-88
2021/12/12 14:05:07;;;;;;;;;;;3.30;99.90;;;;;;6075028;23;19921;-89
2021/12/12 14:07:48;;;;;;;;;;;3.40;99.90;;;;;;6072986;23;19923;-89
2021/12/12 14:10:50;;;;;;;;;;;3.20;99.90;;;;;;6108582;23;19940;-87
2021/12/12 14:13:34;;;;;;;;;;;3.20;99.90;;;;;;6074493;23;19921;-87
2021/12/12 14:16:16;;;;;;;;;;;3.10;99.90;;;;;;6098201;23;19924;-87
2021/12/12 14:18:49;;;;;;;;;;;3.20;99.90;;;;;;6132422;23;19923;-85
2021/12/12 14:21:23;;;;;;;;;;;3.10;99.90;;;;;;6135546;23;19921;-88
2021/12/12 14:23:57;;;;;;;;;;;3.10;99.90;;;;;;6075938;23;19924;-84
2021/12/12 14:26:30;;;;;;;;;;;2.90;99.90;;;;;;6106113;23;19921;-84
2021/12/12 14:28:59;;;;;;;;;;;2.90;99.90;;;;;;6108565;23;19929;-82
2021/12/12 14:31:31;;;;;;;;;;;2.80;99.90;;;;;;6128521;23;20321;-87
2021/12/12 14:34:27;;;;;;;;;;;2.80;99.90;;;;;;6121811;23;20257;-88
2021/12/12 14:37:00;;;;;;;;;;;2.70;99.90;;;;;;6074158;23;19955;-88
2021/12/12 14:39:31;;;;;;;;;;;2.60;99.90;;;;;;6074957;23;19916;-84
2021/12/12 14:42:04;;;;;;;;;;;2.50;99.90;;;;;;6074404;23;19917;-84
2021/12/12 14:44:46;;;;;;;;;;;2.30;99.90;;;;;;6100040;23;19920;-85
2021/12/12 14:47:31;;;;;;;;;;;2.30;99.90;;;;;;6102496;23;19928;-85
2021/12/12 14:50:34;;;;;;;;;;;2.30;99.90;;;;;;6057515;23;19928;-89
2021/12/12 14:53:09;;;;;;;;;;;2.10;99.90;;;;;;6037128;23;19918;-88
2021/12/12 14:55:49;;;;;;;;;;;2.00;99.90;;;;;;6011551;23;19917;-87
2021/12/12 14:58:55;;;;;;;;;;;2.10;99.90;;;;;;6043393;23;20309;-86
2021/12/12 15:01:50;;;;;;;;;;;2.10;99.90;;;;;;6016616;23;19929;-88
2021/12/12 15:04:19;;;;;;;;;;;2.10;99.90;;;;;;6037074;23;19917;-84
2021/12/12 15:07:09;;;;;;;;;;;2.10;99.90;;;;;;6034372;23;20050;-82
2021/12/12 15:09:51;;;;;;;;;;;1.90;99.90;;;;;;6045248;23;19918;-86
2021/12/12 15:12:23;;;;;;;;;;;1.90;99.90;;;;;;6012032;23;19922;-88
2021/12/12 15:15:30;;;;;;;;;;;1.90;99.90;;;;;;6018097;23;19928;-88
2021/12/12 15:18:17;;;;;;;;;;;1.90;99.90;;;;;;5999116;23;20242;-87
2021/12/12 15:20:53;;;;;;;;;;;2.00;99.90;;;;;;5961050;23;19925;-84
2021/12/12 15:23:24;;;;;;;;;;;2.00;99.90;;;;;;6023683;23;19925;-89
2021/12/12 15:26:00;;;;;;;;;;;2.00;99.90;;;;;;6015869;23;19929;-86